createdAt,value
2016-04-01T00:02:49.290Z,0
2016-04-01T00:05:51.485Z,0
2016-04-01T00:09:05.119Z,0
2016-04-01T00:12:15.611Z,0
2016-04-01T00:15:26.494Z,0
2016-04-01T00:18:36.520Z,0
2016-04-01T00:21:54.903Z,0
2016-04-01T00:24:57.115Z,0
2016-04-01T00:28:08.170Z,0
2016-04-01T00:31:19.709Z,0
2016-04-01T00:34:30.141Z,0
2016-04-01T00:37:47.665Z,0
2016-04-01T00:40:55.924Z,0
2016-04-01T00:43:58.025Z,0
2016-04-01T00:47:09.033Z,0
2016-04-01T00:50:20.494Z,0
2016-04-01T00:53:31.504Z,0
2016-04-01T00:56:50.388Z,0
2016-04-01T00:59:52.740Z,0
2016-04-01T01:03:05.811Z,0
2016-04-01T01:06:18.803Z,0
2016-04-01T01:09:32.095Z,0
2016-04-01T01:12:51.213Z,0
2016-04-01T01:15:53.564Z,0
2016-04-01T01:19:05.229Z,0
2016-04-01T01:22:16.518Z,0
2016-04-01T01:25:29.701Z,0
2016-04-01T01:28:48.818Z,0
2016-04-01T01:31:57.107Z,0
2016-04-01T01:34:59.225Z,0
2016-04-01T01:38:11.077Z,0
2016-04-01T01:41:24.256Z,0
2016-04-01T01:44:37.407Z,0
2016-04-01T01:47:56.525Z,0
2016-04-01T01:50:58.643Z,0
2016-04-01T01:54:09.245Z,0
2016-04-01T01:57:19.768Z,0
2016-04-01T02:00:32.607Z,0
2016-04-01T02:03:51.803Z,0
2016-04-01T02:06:54.076Z,0
2016-04-01T02:10:07.167Z,0
2016-04-01T02:13:18.347Z,0
2016-04-01T02:16:31.530Z,0
2016-04-01T02:19:50.601Z,0
2016-04-01T02:22:52.921Z,0
2016-04-01T02:26:05.976Z,0
2016-04-01T02:29:18.860Z,0
2016-04-01T02:32:32.167Z,0
2016-04-01T02:35:49.409Z,0
2016-04-01T02:38:51.714Z,0
2016-04-01T02:42:04.769Z,0
2016-04-01T02:45:16.011Z,0
2016-04-01T02:48:26.629Z,0
2016-04-01T02:51:37.046Z,0
2016-04-01T02:54:55.960Z,0
2016-04-01T02:57:58.015Z,0
2016-04-01T03:01:08.648Z,0
2016-04-01T03:04:21.406Z,0
2016-04-01T03:07:34.417Z,0
2016-04-01T03:10:51.050Z,0
2016-04-01T03:13:53.105Z,0
2016-04-01T03:17:02.519Z,0
2016-04-01T03:20:15.590Z,0
2016-04-01T03:23:26.223Z,0
2016-04-01T03:26:36.703Z,0
2016-04-01T03:29:55.632Z,0
2016-04-01T03:32:57.735Z,0
2016-04-01T03:36:10.852Z,0
2016-04-01T03:39:23.781Z,0
2016-04-01T03:42:36.527Z,0
2016-04-01T03:45:55.550Z,0
2016-04-01T03:48:57.574Z,0
2016-04-01T03:52:07.520Z,0
2016-04-01T03:55:20.107Z,0
2016-04-01T03:58:30.757Z,0
2016-04-01T04:01:49.406Z,0
2016-04-01T04:04:57.648Z,0
2016-04-01T04:07:59.641Z,1
2016-04-01T04:11:08.867Z,1
2016-04-01T04:14:18.000Z,2
2016-04-01T04:17:27.244Z,2
2016-04-01T04:20:36.691Z,4
2016-04-01T04:23:55.575Z,7
2016-04-01T04:26:57.677Z,11
2016-04-01T04:30:08.779Z,18
2016-04-01T04:33:20.459Z,29
2016-04-01T04:36:31.748Z,44
2016-04-01T04:39:50.992Z,58
2016-04-01T04:42:53.126Z,66
2016-04-01T04:46:03.353Z,72
2016-04-01T04:49:16.486Z,79
2016-04-01T04:52:29.588Z,88
2016-04-01T04:55:48.629Z,105
2016-04-01T04:58:56.840Z,127
2016-04-01T05:01:59.004Z,160
2016-04-01T05:05:11.951Z,207
2016-04-01T05:08:27.020Z,242
2016-04-01T05:11:37.860Z,291
2016-04-01T05:14:53.977Z,355
2016-04-01T05:17:55.922Z,420
2016-04-01T05:21:05.728Z,535
2016-04-01T05:24:18.455Z,694
2016-04-01T05:27:31.651Z,766
2016-04-01T05:30:50.787Z,729
2016-04-01T05:33:53.029Z,778
2016-04-01T05:37:06.037Z,685
2016-04-01T05:40:16.889Z,713
2016-04-01T05:43:27.147Z,694
2016-04-01T05:46:37.561Z,786
2016-04-01T05:49:56.321Z,886
2016-04-01T05:52:58.377Z,1125
2016-04-01T05:56:11.619Z,1182
2016-04-01T05:59:23.393Z,1351
2016-04-01T06:02:33.996Z,1491
2016-04-01T06:05:53.005Z,1464
2016-04-01T06:08:55.080Z,1254
2016-04-01T06:12:08.338Z,1115
2016-04-01T06:15:18.269Z,1084
2016-04-01T06:18:27.682Z,1230
2016-04-01T06:21:40.567Z,1444
2016-04-01T06:24:53.717Z,1385
2016-04-01T06:28:06.256Z,1415
2016-04-01T06:31:17.170Z,1835
2016-04-01T06:34:29.976Z,1942
2016-04-01T06:37:49.408Z,1828
2016-04-01T06:40:57.478Z,1962
2016-04-01T06:43:59.533Z,1854
2016-04-01T06:47:12.510Z,1981
2016-04-01T06:50:25.597Z,2156
2016-04-01T06:53:35.246Z,2747
2016-04-01T06:56:55.303Z,3331
2016-04-01T06:59:56.451Z,4190
2016-04-01T07:03:09.631Z,4187
2016-04-01T07:06:22.890Z,5094
2016-04-01T07:09:36.038Z,6319
2016-04-01T07:12:55.564Z,7136
2016-04-01T07:15:57.979Z,6952
2016-04-01T07:19:11.566Z,3474
2016-04-01T07:22:25.713Z,384
2016-04-01T07:25:38.831Z,384
2016-04-01T07:28:53.967Z,384
2016-04-01T07:32:09.319Z,384
2016-04-01T07:35:24.937Z,384
2016-04-01T07:38:40.914Z,1643
2016-04-01T07:41:56.597Z,6142
2016-04-01T07:45:09.996Z,618
2016-04-01T07:48:24.146Z,4954
2016-04-01T07:51:36.996Z,384
2016-04-01T07:54:56.132Z,384
2016-04-01T07:58:01.870Z,384
2016-04-01T08:01:18.236Z,384
2016-04-01T08:04:34.632Z,384
2016-04-01T08:07:57.092Z,384
2016-04-01T08:11:02.884Z,384
2016-04-01T08:14:16.892Z,384
2016-04-01T08:17:30.290Z,384
2016-04-01T08:20:50.470Z,384
2016-04-01T08:23:56.197Z,384
2016-04-01T08:27:12.441Z,384
2016-04-01T08:30:26.185Z,384
2016-04-01T08:33:39.818Z,384
2016-04-01T08:36:53.263Z,384
2016-04-01T08:40:05.915Z,384
2016-04-01T08:43:18.204Z,384
2016-04-01T08:46:32.806Z,384
2016-04-01T08:49:51.267Z,384
2016-04-01T08:52:55.729Z,384
2016-04-01T08:56:10.598Z,384
2016-04-01T08:59:25.388Z,384
2016-04-01T09:02:38.411Z,384
2016-04-01T09:05:53.544Z,384
2016-04-01T09:09:08.337Z,384
2016-04-01T09:12:21.704Z,384
2016-04-01T09:15:34.774Z,384
2016-04-01T09:18:56.251Z,384
2016-04-01T09:22:00.869Z,384
2016-04-01T09:25:15.676Z,384
2016-04-01T09:28:27.059Z,384
2016-04-01T09:31:38.208Z,384
2016-04-01T09:34:53.342Z,384
2016-04-01T09:38:08.084Z,384
2016-04-01T09:41:20.391Z,384
2016-04-01T09:44:34.712Z,384
2016-04-01T09:47:52.627Z,384
2016-04-01T09:50:56.744Z,384
2016-04-01T09:54:08.330Z,384
2016-04-01T09:57:19.637Z,384
2016-04-01T10:00:32.661Z,384
2016-04-01T10:03:52.278Z,11430
2016-04-01T10:06:55.490Z,7467
2016-04-01T10:10:07.280Z,5761
2016-04-01T10:13:18.399Z,4795
2016-04-01T10:16:29.532Z,4316
2016-04-01T10:19:50.166Z,4039
2016-04-01T10:22:54.158Z,3886
2016-04-01T10:26:05.791Z,3791
2016-04-01T10:29:19.958Z,3711
2016-04-01T10:32:31.856Z,3658
2016-04-01T10:35:52.756Z,3615
2016-04-01T10:38:57.030Z,3548
2016-04-01T10:42:11.787Z,3493
2016-04-01T10:45:25.596Z,3428
2016-04-01T10:48:40.446Z,3378
2016-04-01T10:51:58.282Z,3320
2016-04-01T10:55:02.463Z,3268
2016-04-01T10:58:17.583Z,3236
2016-04-01T11:01:32.325Z,3193
2016-04-01T11:04:50.739Z,3153
2016-04-01T11:07:54.428Z,3109
2016-04-01T11:11:07.546Z,3074
2016-04-01T11:14:21.416Z,3037
2016-04-01T11:17:35.737Z,3004
2016-04-01T11:20:53.088Z,2957
2016-04-01T11:23:56.768Z,2929
2016-04-01T11:27:11.089Z,2899
2016-04-01T11:30:25.537Z,2875
2016-04-01T11:33:38.811Z,2852
2016-04-01T11:36:53.334Z,2838
2016-04-01T11:40:07.827Z,2814
2016-04-01T11:43:18.869Z,2803
2016-04-01T11:46:29.892Z,2780
2016-04-01T11:49:49.417Z,2768
2016-04-01T11:52:59.191Z,2754
2016-04-01T11:56:02.666Z,2741
2016-04-01T11:59:14.677Z,2734
2016-04-01T12:02:28.857Z,2728
2016-04-01T12:05:43.303Z,2721
2016-04-01T12:08:57.562Z,2715
2016-04-01T12:12:11.538Z,2712
2016-04-01T12:15:25.877Z,2693
2016-04-01T12:18:41.808Z,2663
2016-04-01T12:21:53.471Z,2658
2016-04-01T12:25:05.073Z,2636
2016-04-01T12:28:16.834Z,2619
2016-04-01T12:31:29.701Z,2611
2016-04-01T12:34:41.507Z,2598
2016-04-01T12:37:58.701Z,2585
2016-04-01T12:41:00.991Z,2580
2016-04-01T12:44:14.220Z,2570
2016-04-01T12:47:27.228Z,2561
2016-04-01T12:50:37.330Z,2538
2016-04-01T12:53:54.713Z,2526
2016-04-01T12:56:57.206Z,2518
2016-04-01T13:00:07.338Z,2509
2016-04-01T13:03:20.663Z,2496
2016-04-01T13:06:31.967Z,2484
2016-04-01T13:09:51.834Z,2527
2016-04-01T13:12:54.249Z,2467
2016-04-01T13:16:07.663Z,2456
2016-04-01T13:19:21.033Z,2448
2016-04-01T13:22:31.994Z,2444
2016-04-01T13:25:51.721Z,2428
2016-04-01T13:28:53.917Z,2419
2016-04-01T13:32:03.972Z,2411
2016-04-01T13:35:15.482Z,2399
2016-04-01T13:38:25.319Z,2393
2016-04-01T13:41:35.280Z,2384
2016-04-01T13:44:54.303Z,2373
2016-04-01T13:47:56.733Z,2365
2016-04-01T13:51:10.101Z,2359
2016-04-01T13:54:23.519Z,2351
2016-04-01T13:57:37.105Z,2345
2016-04-01T14:00:53.768Z,2339
2016-04-01T14:03:56.385Z,2331
2016-04-01T14:07:09.426Z,2323
2016-04-01T14:10:22.811Z,2313
2016-04-01T14:13:36.209Z,2303
2016-04-01T14:16:55.312Z,2289
2016-04-01T14:19:57.882Z,2284
2016-04-01T14:23:11.266Z,2272
2016-04-01T14:26:23.447Z,2274
2016-04-01T14:29:35.768Z,2268
2016-04-01T14:32:54.339Z,2257
2016-04-01T14:35:56.878Z,2245
2016-04-01T14:39:07.120Z,2233
2016-04-01T14:42:20.491Z,2224
2016-04-01T14:45:33.967Z,2217
2016-04-01T14:48:52.835Z,2208
2016-04-01T14:51:55.328Z,2211
2016-04-01T14:55:08.430Z,2196
2016-04-01T14:58:20.471Z,2176
2016-04-01T15:01:33.105Z,2105
2016-04-01T15:04:52.690Z,2105
2016-04-01T15:07:55.182Z,2134
2016-04-01T15:11:08.504Z,2125
2016-04-01T15:14:19.076Z,2107
2016-04-01T15:17:32.226Z,2092
2016-04-01T15:20:50.436Z,2073
2016-04-01T15:23:59.350Z,2054
2016-04-01T15:27:01.905Z,1964
2016-04-01T15:30:15.132Z,1995
2016-04-01T15:33:25.988Z,2007
2016-04-01T15:36:36.902Z,2035
2016-04-01T15:39:54.316Z,2036
2016-04-01T15:42:57.168Z,2036
2016-04-01T15:46:12.551Z,2002
2016-04-01T15:49:23.420Z,1975
2016-04-01T15:52:33.883Z,1971
2016-04-01T15:55:52.516Z,1893
2016-04-01T15:58:55.039Z,1843
2016-04-01T16:02:08.438Z,1840
2016-04-01T16:05:21.636Z,1833
2016-04-01T16:08:33.191Z,1783
2016-04-01T16:11:51.230Z,1725
2016-04-01T16:14:59.676Z,1690
2016-04-01T16:18:02.325Z,1664
2016-04-01T16:21:12.349Z,1640
2016-04-01T16:24:25.640Z,1593
2016-04-01T16:27:38.992Z,1563
2016-04-01T16:30:55.188Z,1502
2016-04-01T16:33:57.759Z,1458
2016-04-01T16:37:09.627Z,1430
2016-04-01T16:40:21.618Z,1381
2016-04-01T16:43:34.910Z,1278
2016-04-01T16:46:52.418Z,1149
2016-04-01T16:49:54.783Z,1089
2016-04-01T16:53:05.320Z,993
2016-04-01T16:56:18.412Z,944
2016-04-01T16:59:28.829Z,880
2016-04-01T17:02:42.067Z,826
2016-04-01T17:05:59.516Z,734
2016-04-01T17:09:04.045Z,673
2016-04-01T17:12:14.961Z,617
2016-04-01T17:15:27.985Z,546
2016-04-01T17:18:38.540Z,471
2016-04-01T17:21:57.892Z,413
2016-04-01T17:25:00.244Z,350
2016-04-01T17:28:10.502Z,289
2016-04-01T17:31:23.697Z,237
2016-04-01T17:34:36.818Z,193
2016-04-01T17:37:53.013Z,153
2016-04-01T17:40:55.490Z,117
2016-04-01T17:44:06.296Z,87
2016-04-01T17:47:20.663Z,62
2016-04-01T17:50:32.798Z,42
2016-04-01T17:53:52.072Z,26
2016-04-01T17:57:00.564Z,16
2016-04-01T18:00:02.901Z,7
2016-04-01T18:03:15.706Z,5
2016-04-01T18:06:29.026Z,3
2016-04-01T18:09:40.883Z,2
2016-04-01T18:12:56.724Z,1
2016-04-01T18:15:58.967Z,1
2016-04-01T18:19:12.083Z,1
2016-04-01T18:22:25.233Z,1
2016-04-01T18:25:36.962Z,1
2016-04-01T18:28:56.252Z,1
2016-04-01T18:31:58.494Z,1
2016-04-01T18:35:09.408Z,1
2016-04-01T18:38:22.416Z,1
2016-04-01T18:41:33.126Z,1
2016-04-01T18:44:51.981Z,1
2016-04-01T18:48:00.365Z,1
2016-04-01T18:51:02.795Z,1
2016-04-01T18:54:15.944Z,1
2016-04-01T18:57:27.842Z,1
2016-04-01T19:00:41.088Z,1
2016-04-01T19:03:59.938Z,1
2016-04-01T19:07:02.338Z,1
2016-04-01T19:10:15.408Z,1
2016-04-01T19:13:25.354Z,1
2016-04-01T19:16:38.893Z,1
2016-04-01T19:19:54.935Z,1
2016-04-01T19:22:57.443Z,1
2016-04-01T19:26:07.139Z,1
2016-04-01T19:29:16.538Z,1
2016-04-01T19:32:28.202Z,1
2016-04-01T19:35:38.569Z,1
2016-04-01T19:38:57.783Z,1
2016-04-01T19:42:00.306Z,1
2016-04-01T19:45:13.659Z,1
2016-04-01T19:48:26.964Z,1
2016-04-01T19:51:40.600Z,1
2016-04-01T19:55:00.139Z,1
2016-04-01T19:58:02.491Z,1
2016-04-01T20:01:15.874Z,1
2016-04-01T20:04:27.663Z,1
2016-04-01T20:07:40.111Z,1
2016-04-01T20:11:00.010Z,1
2016-04-01T20:14:02.659Z,1
2016-04-01T20:17:16.057Z,1
2016-04-01T20:20:29.237Z,1
2016-04-01T20:23:42.592Z,1
2016-04-01T20:26:59.397Z,1
2016-04-01T20:30:02.092Z,1
2016-04-01T20:33:14.616Z,1
2016-04-01T20:36:27.921Z,1
2016-04-01T20:39:40.399Z,1
2016-04-01T20:42:57.876Z,1
2016-04-01T20:46:00.526Z,1
2016-04-01T20:49:13.768Z,1
2016-04-01T20:52:26.354Z,1
2016-04-01T20:55:39.598Z,1
2016-04-01T20:58:58.983Z,1
2016-04-01T21:02:01.460Z,1
2016-04-01T21:05:14.750Z,1
2016-04-01T21:08:26.600Z,1
2016-04-01T21:11:39.797Z,1
2016-04-01T21:14:58.949Z,1
2016-04-01T21:18:01.409Z,1
2016-04-01T21:21:13.308Z,1
2016-04-01T21:24:26.378Z,1
2016-04-01T21:27:39.730Z,1
2016-04-01T21:30:58.773Z,1
2016-04-01T21:34:01.264Z,1
2016-04-01T21:37:14.569Z,1
2016-04-01T21:40:27.797Z,1
2016-04-01T21:43:41.274Z,1
2016-04-01T21:47:00.580Z,1
2016-04-01T21:50:03.135Z,1
2016-04-01T21:53:16.379Z,1
2016-04-01T21:56:29.511Z,1
2016-04-01T21:59:42.910Z,1
2016-04-01T22:03:02.327Z,1
2016-04-01T22:06:04.725Z,1
2016-04-01T22:09:17.828Z,1
2016-04-01T22:12:31.102Z,1
2016-04-01T22:15:42.860Z,1
2016-04-01T22:18:58.871Z,1
2016-04-01T22:22:01.332Z,1
2016-04-01T22:25:13.324Z,1
2016-04-01T22:28:24.737Z,1
2016-04-01T22:31:38.230Z,1
2016-04-01T22:34:54.163Z,1
2016-04-01T22:38:02.608Z,1
2016-04-01T22:41:04.975Z,1
2016-04-01T22:44:14.749Z,1
2016-04-01T22:47:25.149Z,1
2016-04-01T22:50:35.999Z,1
2016-04-01T22:53:55.340Z,1
2016-04-01T22:57:03.722Z,1
2016-04-01T23:00:05.949Z,1
2016-04-01T23:03:19.426Z,1
2016-04-01T23:06:29.465Z,1
2016-04-01T23:09:39.332Z,1
2016-04-01T23:12:56.484Z,1
2016-04-01T23:16:04.774Z,1
2016-04-01T23:19:06.984Z,1
2016-04-01T23:22:20.102Z,1
2016-04-01T23:25:33.173Z,1
2016-04-01T23:28:46.368Z,1
2016-04-01T23:32:05.176Z,1
2016-04-01T23:35:07.450Z,1
2016-04-01T23:38:20.535Z,1
2016-04-01T23:41:33.684Z,1
2016-04-01T23:44:43.270Z,1
2016-04-01T23:48:02.328Z,1
2016-04-01T23:51:04.727Z,1
2016-04-01T23:54:17.689Z,1
2016-04-01T23:57:31.041Z,1
